Gladeville, Tennessee
Current Conditions -  °F | °C
As of 4:53 PM on Thursday 18 Dec 2014 (Local Time) from KBNA Reporting Station
Overcast Overcast  
Wind Chill:   Ceiling: 5000
Heat Index:   Visibility: 10mi
Dew Point: -1°   Wind: 3mph
Humidity: 79%   Direction: 40°NE
Pressure: 30.21"   Gusts: NA
Location:  36.11°N, 86.42°W
Report Text: KBNA 182253Z 04003KT 10SM BKN050 OVC055 03/M01 A3021 RMK AO2 SLP234 T00281006
Loading
Personal Weather Stations






























Interactive Weather Map New forecast layout! Learn more

10-Day Weather Forecast

Advertisements
Track Severe Weather on mobile